Time;durP1;ratioP1;P1;durP2;ratioP2;P2;SDS_P1;SDS_P2;PMS_P1;PMS_P2;Temp;Humidity;BMP_temperature;BMP_pressure;BME280_temperature;BME280_humidity;BME280_pressure;Samples;Min_cycle;Max_cycle;Signal;HPM_P1;HPM_P2
2024/01/29 00:00:09;;;;;;;5.90;2.92;;;5.90;99.90;;;;;;5093708;28;21139;-58
2024/01/29 00:02:37;;;;;;;5.15;3.38;;;5.90;99.90;;;;;;5093649;28;20169;-58
2024/01/29 00:05:02;;;;;;;4.05;2.72;;;5.90;99.90;;;;;;5093540;28;20164;-58
2024/01/29 00:07:28;;;;;;;4.25;2.70;;;5.90;99.90;;;;;;5093527;28;20700;-58
2024/01/29 00:09:53;;;;;;;3.80;2.97;;;5.90;99.90;;;;;;5093400;28;20209;-59
2024/01/29 00:12:19;;;;;;;3.72;3.30;;;5.90;99.90;;;;;;5093360;28;20162;-57
2024/01/29 00:14:45;;;;;;;5.13;3.20;;;5.90;99.90;;;;;;5093824;28;20173;-59
2024/01/29 00:17:10;;;;;;;5.25;3.70;;;5.90;99.90;;;;;;5093342;28;20196;-58
2024/01/29 00:19:36;;;;;;;6.22;3.90;;;5.90;99.90;;;;;;5091932;28;20176;-58
2024/01/29 00:22:01;;;;;;;5.22;3.00;;;5.90;99.90;;;;;;5093189;28;20161;-57
2024/01/29 00:24:27;;;;;;;4.85;3.28;;;5.90;99.90;;;;;;5093120;28;20204;-59
2024/01/29 00:26:52;;;;;;;7.32;3.95;;;5.90;99.90;;;;;;5091824;28;20668;-56
2024/01/29 00:29:18;;;;;;;8.40;3.63;;;5.80;99.90;;;;;;5092624;28;20209;-57
2024/01/29 00:31:44;;;;;;;11.10;4.03;;;5.80;99.90;;;;;;5092967;28;20592;-58
2024/01/29 00:34:09;;;;;;;10.98;5.35;;;5.80;99.90;;;;;;5091583;28;20169;-56
2024/01/29 00:36:35;;;;;;;7.57;3.70;;;5.80;99.90;;;;;;5093196;28;20161;-57
2024/01/29 00:39:06;;;;;;;5.07;3.20;;;5.80;99.90;;;;;;5092824;28;20674;-58
2024/01/29 00:41:32;;;;;;;8.65;3.47;;;5.80;99.90;;;;;;5092797;28;20642;-56
2024/01/29 00:43:58;;;;;;;7.50;3.28;;;5.80;99.90;;;;;;5092813;28;20169;-59
2024/01/29 00:46:23;;;;;;;7.45;3.33;;;5.80;99.90;;;;;;5092686;28;20189;-52
2024/01/29 00:48:49;;;;;;;4.65;2.90;;;5.80;99.90;;;;;;5091372;28;20266;-59
2024/01/29 00:51:14;;;;;;;6.15;3.53;;;5.80;99.90;;;;;;5093194;28;20188;-53
2024/01/29 00:53:40;;;;;;;7.25;3.60;;;5.80;99.90;;;;;;5092898;28;20208;-60
2024/01/29 00:56:06;;;;;;;4.88;3.30;;;5.80;99.90;;;;;;5092392;28;20222;-58
2024/01/29 00:58:31;;;;;;;6.35;3.60;;;5.80;99.90;;;;;;5092405;28;20173;-57
2024/01/29 01:00:57;;;;;;;6.20;3.35;;;5.80;99.90;;;;;;5092469;28;20252;-58
2024/01/29 01:03:22;;;;;;;6.10;3.10;;;5.80;99.90;;;;;;5092329;28;20204;-54
2024/01/29 01:05:48;;;;;;;7.25;3.67;;;5.80;99.90;;;;;;5092276;28;20165;-58
2024/01/29 01:08:14;;;;;;;5.00;3.38;;;5.80;99.90;;;;;;5092708;28;20197;-58
2024/01/29 01:10:39;;;;;;;4.68;3.17;;;5.80;99.90;;;;;;5092227;28;20177;-54
2024/01/29 01:13:05;;;;;;;8.20;3.90;;;5.80;99.90;;;;;;5092009;28;20172;-57
2024/01/29 01:15:30;;;;;;;7.22;3.33;;;5.80;99.90;;;;;;5091760;28;20165;-58
2024/01/29 01:17:56;;;;;;;5.05;3.70;;;5.80;99.90;;;;;;5092065;28;20632;-58
2024/01/29 01:20:23;;;;;;;6.30;3.67;;;5.80;99.90;;;;;;5092387;28;20632;-59
2024/01/29 01:22:49;;;;;;;8.60;2.80;;;5.80;99.90;;;;;;5090792;28;20165;-58
2024/01/29 01:25:15;;;;;;;4.50;3.33;;;5.90;99.90;;;;;;5092477;28;20173;-58
2024/01/29 01:27:40;;;;;;;5.97;3.63;;;5.80;99.90;;;;;;5092175;28;20169;-52
2024/01/29 01:30:06;;;;;;;7.65;3.40;;;5.90;99.90;;;;;;5092036;28;20201;-57
2024/01/29 01:32:32;;;;;;;7.80;3.35;;;5.80;99.90;;;;;;5091935;28;20294;-52
2024/01/29 01:34:58;;;;;;;4.82;3.30;;;5.80;99.90;;;;;;5090657;28;20651;-55
2024/01/29 01:37:23;;;;;;;5.55;3.60;;;5.80;99.90;;;;;;5092062;28;20172;-57
2024/01/29 01:39:52;;;;;;;4.60;3.25;;;5.80;99.90;;;;;;5091937;28;20189;-59
2024/01/29 01:42:19;;;;;;;5.93;3.20;;;5.80;99.90;;;;;;5091548;28;20538;-58
2024/01/29 01:44:46;;;;;;;3.72;2.97;;;5.80;99.90;;;;;;5092437;28;20203;-59
2024/01/29 01:47:11;;;;;;;4.85;3.05;;;5.80;99.90;;;;;;5091957;28;20202;-58
2024/01/29 01:49:37;;;;;;;4.93;3.22;;;5.80;99.90;;;;;;5091610;28;20237;-59
2024/01/29 01:52:04;;;;;;;6.00;3.95;;;5.80;99.90;;;;;;5091547;28;20204;-56
2024/01/29 01:54:30;;;;;;;10.02;3.30;;;5.80;99.90;;;;;;5090366;28;20505;-57
2024/01/29 01:56:58;;;;;;;4.50;3.00;;;5.70;99.90;;;;;;5091495;28;20212;-52
2024/01/29 01:59:25;;;;;;;4.50;3.20;;;5.70;99.90;;;;;;5091433;28;20191;-51
2024/01/29 02:01:52;;;;;;;5.50;3.72;;;5.70;99.90;;;;;;5091373;28;20168;-52
2024/01/29 02:04:18;;;;;;;5.32;3.42;;;5.70;99.90;;;;;;5091402;28;20539;-53
2024/01/29 02:06:43;;;;;;;6.93;3.83;;;5.70;99.90;;;;;;5090576;28;20173;-52
2024/01/29 02:09:09;;;;;;;8.75;3.88;;;5.70;99.90;;;;;;5090021;28;20227;-53
2024/01/29 02:11:35;;;;;;;8.20;3.58;;;5.60;99.90;;;;;;5091364;28;20179;-52
2024/01/29 02:14:00;;;;;;;6.03;3.30;;;5.60;99.90;;;;;;5091211;28;20162;-52
2024/01/29 02:16:26;;;;;;;6.30;3.72;;;5.60;99.90;;;;;;5091322;28;20197;-59
2024/01/29 02:18:52;;;;;;;9.15;4.43;;;5.60;99.90;;;;;;5091277;28;20644;-58
2024/01/29 02:21:17;;;;;;;7.40;3.92;;;5.60;99.90;;;;;;5091340;28;20165;-57
2024/01/29 02:23:45;;;;;;;7.97;3.55;;;5.60;99.90;;;;;;5091723;28;20200;-59
2024/01/29 02:26:10;;;;;;;9.63;4.18;;;5.60;99.90;;;;;;5091421;28;20176;-56
2024/01/29 02:28:36;;;;;;;4.85;3.40;;;5.60;99.90;;;;;;5091128;28;20280;-56
2024/01/29 02:31:01;;;;;;;5.72;3.25;;;5.60;99.90;;;;;;5091161;28;20175;-58
2024/01/29 02:33:27;;;;;;;4.88;3.17;;;5.60;99.90;;;;;;5091107;28;20165;-58
2024/01/29 02:35:52;;;;;;;6.20;3.33;;;5.60;99.90;;;;;;5091062;28;20157;-59
2024/01/29 02:38:18;;;;;;;7.60;3.60;;;5.60;99.90;;;;;;5091085;28;20191;-58
2024/01/29 02:40:43;;;;;;;4.65;3.40;;;5.60;99.90;;;;;;5091599;28;20263;-57
2024/01/29 02:43:10;;;;;;;9.25;3.83;;;5.60;99.90;;;;;;5090964;28;20521;-59
2024/01/29 02:45:35;;;;;;;4.82;3.22;;;5.60;99.90;;;;;;5090924;28;20165;-58
2024/01/29 02:48:01;;;;;;;7.03;3.33;;;5.60;99.90;;;;;;5090942;28;20166;-58
2024/01/29 02:50:26;;;;;;;8.95;3.63;;;5.60;99.90;;;;;;5091039;28;20180;-59
2024/01/29 02:52:52;;;;;;;7.57;3.67;;;5.50;99.90;;;;;;5090919;28;20165;-59
2024/01/29 02:55:18;;;;;;;6.82;3.90;;;5.50;99.90;;;;;;5094101;28;20240;-55
2024/01/29 02:57:43;;;;;;;7.35;3.83;;;5.50;99.90;;;;;;5095136;28;20217;-50
2024/01/29 03:00:10;;;;;;;6.38;3.92;;;5.50;99.90;;;;;;5094733;28;20543;-53
2024/01/29 03:02:36;;;;;;;9.32;3.58;;;5.50;99.90;;;;;;5094948;28;20201;-53
2024/01/29 03:05:01;;;;;;;8.32;3.28;;;5.50;99.90;;;;;;5093398;28;20204;-53
2024/01/29 03:07:27;;;;;;;5.47;3.10;;;5.50;99.90;;;;;;5094713;28;20176;-55
2024/01/29 03:09:52;;;;;;;8.23;3.83;;;5.40;99.90;;;;;;5094564;28;20209;-58
2024/01/29 03:12:18;;;;;;;5.22;3.38;;;5.40;99.90;;;;;;5094473;28;20176;-59
2024/01/29 03:14:43;;;;;;;4.90;3.30;;;5.40;99.90;;;;;;5095004;28;20211;-61
2024/01/29 03:17:09;;;;;;;6.13;3.42;;;5.40;99.90;;;;;;5094428;28;20165;-59
2024/01/29 03:19:35;;;;;;;7.85;3.50;;;5.40;99.90;;;;;;5094432;28;20252;-59
2024/01/29 03:22:00;;;;;;;7.45;3.60;;;5.40;99.90;;;;;;5094553;28;20176;-57
2024/01/29 03:24:26;;;;;;;8.90;4.10;;;5.40;99.90;;;;;;5093723;28;20192;-57
2024/01/29 03:26:51;;;;;;;6.45;3.45;;;5.30;99.90;;;;;;5094349;28;20543;-58
2024/01/29 03:29:17;;;;;;;5.72;3.42;;;5.30;99.90;;;;;;5094205;28;20576;-54
2024/01/29 03:31:42;;;;;;;8.68;3.45;;;5.30;99.90;;;;;;5094744;28;20252;-59
2024/01/29 03:34:08;;;;;;;7.78;3.50;;;5.30;99.90;;;;;;5094204;28;20248;-58
2024/01/29 03:36:34;;;;;;;4.63;3.55;;;5.30;99.90;;;;;;5094118;28;20210;-59
2024/01/29 03:38:59;;;;;;;4.22;3.30;;;5.30;99.90;;;;;;5094120;28;20542;-58
2024/01/29 03:41:26;;;;;;;6.95;3.17;;;5.30;99.90;;;;;;5094110;28;20200;-59
2024/01/29 03:43:51;;;;;;;6.03;3.47;;;5.30;99.90;;;;;;5094068;28;20197;-59
2024/01/29 03:46:17;;;;;;;4.82;3.22;;;5.30;99.90;;;;;;5094151;28;20205;-58
2024/01/29 03:48:42;;;;;;;4.25;3.45;;;5.30;99.90;;;;;;5094217;28;20630;-59
2024/01/29 03:51:09;;;;;;;4.00;3.20;;;5.30;99.90;;;;;;5093746;28;20615;-58
2024/01/29 03:53:34;;;;;;;7.82;3.40;;;5.20;99.90;;;;;;5094007;28;20173;-58
2024/01/29 03:56:00;;;;;;;4.15;3.28;;;5.20;99.90;;;;;;5093706;28;20175;-58
2024/01/29 03:58:25;;;;;;;5.40;3.45;;;5.20;99.90;;;;;;5093670;28;20260;-59
2024/01/29 04:00:51;;;;;;;5.50;3.60;;;5.20;99.90;;;;;;5093619;28;20193;-58
2024/01/29 04:03:16;;;;;;;7.57;3.95;;;5.20;99.90;;;;;;5093536;28;20162;-54
2024/01/29 04:05:44;;;;;;;7.00;3.85;;;5.20;99.90;;;;;;5093384;28;20540;-58
2024/01/29 04:08:10;;;;;;;6.03;3.65;;;5.20;99.90;;;;;;5093630;28;20256;-58
2024/01/29 04:10:35;;;;;;;6.95;3.80;;;5.20;99.90;;;;;;5093445;28;21210;-58
2024/01/29 04:13:01;;;;;;;7.90;3.40;;;5.20;99.90;;;;;;5093399;28;20532;-57
2024/01/29 04:15:26;;;;;;;6.00;3.90;;;5.20;99.90;;;;;;5093434;28;20531;-58
2024/01/29 04:17:52;;;;;;;6.43;3.40;;;5.20;99.90;;;;;;5093378;28;20527;-59
2024/01/29 04:20:18;;;;;;;6.20;3.20;;;5.10;99.90;;;;;;5093284;28;20177;-58
2024/01/29 04:22:43;;;;;;;5.40;3.35;;;5.20;99.90;;;;;;5092387;28;20180;-59
2024/01/29 04:25:09;;;;;;;6.35;3.05;;;5.20;99.90;;;;;;5093105;28;20165;-58
2024/01/29 04:27:35;;;;;;;7.10;3.30;;;5.20;99.90;;;;;;5093062;28;20248;-57
2024/01/29 04:30:02;;;;;;;5.90;3.70;;;5.20;99.90;;;;;;5093038;28;20205;-56
2024/01/29 04:32:28;;;;;;;6.60;3.38;;;5.20;99.90;;;;;;5093330;28;20169;-58
2024/01/29 04:34:54;;;;;;;4.53;3.33;;;5.20;99.90;;;;;;5091685;28;20180;-58
2024/01/29 04:37:19;;;;;;;5.55;3.60;;;5.20;99.90;;;;;;5092992;28;20170;-56
2024/01/29 04:39:45;;;;;;;5.93;3.80;;;5.10;99.90;;;;;;5092104;28;20545;-56
2024/01/29 04:42:11;;;;;;;7.10;3.72;;;5.10;99.90;;;;;;5092744;28;20260;-58
2024/01/29 04:44:36;;;;;;;8.43;3.40;;;5.10;99.90;;;;;;5092759;28;20173;-56
2024/01/29 04:47:02;;;;;;;7.47;3.92;;;5.10;99.90;;;;;;5092736;28;20244;-52
2024/01/29 04:49:28;;;;;;;6.53;3.78;;;5.10;99.90;;;;;;5092595;28;20270;-58
2024/01/29 04:51:53;;;;;;;4.82;3.33;;;5.10;99.90;;;;;;5092648;28;20168;-55
2024/01/29 04:54:19;;;;;;;6.65;3.70;;;5.10;99.90;;;;;;5092623;28;20176;-58
2024/01/29 04:56:44;;;;;;;5.88;3.38;;;5.10;99.90;;;;;;5092889;28;20209;-55
2024/01/29 04:59:10;;;;;;;4.43;3.25;;;5.10;99.90;;;;;;5092485;28;20176;-52
2024/01/29 05:01:35;;;;;;;5.82;3.70;;;5.10;99.90;;;;;;5092709;28;20165;-51
2024/01/29 05:04:01;;;;;;;6.53;3.85;;;5.10;99.90;;;;;;5092396;28;20173;-53
2024/01/29 05:06:27;;;;;;;6.38;3.78;;;5.10;99.90;;;;;;5092365;28;20169;-51
2024/01/29 05:08:53;;;;;;;8.13;3.50;;;5.10;99.90;;;;;;5092541;28;20254;-51
2024/01/29 05:11:18;;;;;;;5.80;3.35;;;5.10;99.90;;;;;;5091111;28;20170;-52
2024/01/29 05:13:44;;;;;;;4.82;3.50;;;5.10;99.90;;;;;;5092825;28;20172;-50
2024/01/29 05:16:10;;;;;;;7.28;2.97;;;5.10;99.90;;;;;;5092195;28;20628;-51
2024/01/29 05:18:36;;;;;;;7.10;4.03;;;5.10;99.90;;;;;;5091143;28;20275;-52
2024/01/29 05:21:03;;;;;;;7.45;3.75;;;5.10;99.90;;;;;;5092179;28;20195;-53
2024/01/29 05:23:28;;;;;;;5.40;3.58;;;5.00;99.90;;;;;;5092371;28;20161;-53
2024/01/29 05:25:54;;;;;;;6.07;3.60;;;5.10;99.90;;;;;;5090796;28;20648;-54
2024/01/29 05:28:21;;;;;;;6.18;3.72;;;5.10;99.90;;;;;;5091850;28;20197;-53
2024/01/29 05:30:47;;;;;;;6.43;3.45;;;5.10;99.90;;;;;;5092162;28;20234;-54
2024/01/29 05:33:12;;;;;;;4.82;3.88;;;5.10;99.90;;;;;;5091078;28;20169;-52
2024/01/29 05:35:38;;;;;;;4.38;3.47;;;5.10;99.90;;;;;;5091816;28;20632;-52
2024/01/29 05:38:03;;;;;;;6.57;4.10;;;5.10;99.90;;;;;;5090523;28;20576;-52
2024/01/29 05:40:29;;;;;;;6.38;3.42;;;5.10;99.90;;;;;;5091577;28;20165;-52
2024/01/29 05:42:55;;;;;;;5.53;4.00;;;5.10;99.90;;;;;;5091975;28;20176;-51
2024/01/29 05:45:21;;;;;;;5.30;3.47;;;5.10;99.90;;;;;;5091883;28;20526;-52
2024/01/29 05:47:46;;;;;;;5.57;4.13;;;5.10;99.90;;;;;;5091702;28;20629;-51
2024/01/29 05:50:12;;;;;;;5.18;4.03;;;5.00;99.90;;;;;;5092007;28;20201;-51
2024/01/29 05:52:38;;;;;;;7.28;3.95;;;5.00;99.90;;;;;;5091584;28;20218;-51
2024/01/29 05:55:04;;;;;;;8.23;4.53;;;5.00;99.90;;;;;;5091557;28;20189;-53
2024/01/29 05:57:30;;;;;;;9.43;3.90;;;5.00;99.90;;;;;;5091626;28;20243;-53
2024/01/29 05:59:56;;;;;;;7.55;4.20;;;5.00;99.90;;;;;;5091597;28;20621;-52
2024/01/29 06:02:21;;;;;;;5.90;4.07;;;5.00;99.90;;;;;;5091477;28;20177;-53
2024/01/29 06:04:47;;;;;;;6.93;4.43;;;5.00;99.90;;;;;;5091618;28;20168;-53
2024/01/29 06:07:12;;;;;;;7.78;4.40;;;5.00;99.90;;;;;;5090552;28;20173;-50
2024/01/29 06:09:38;;;;;;;6.82;4.72;;;5.00;99.90;;;;;;5091274;28;20205;-54
2024/01/29 06:12:04;;;;;;;9.55;5.05;;;5.00;99.90;;;;;;5091285;28;20210;-49
2024/01/29 06:14:32;;;;;;;9.65;5.47;;;5.00;99.90;;;;;;5091197;28;20169;-54
2024/01/29 06:16:58;;;;;;;5.82;4.20;;;5.00;99.90;;;;;;5091251;28;20154;-50
2024/01/29 06:19:24;;;;;;;5.80;3.90;;;5.00;99.90;;;;;;5091213;28;20169;-50
2024/01/29 06:21:50;;;;;;;6.97;4.25;;;5.00;99.90;;;;;;5090461;28;20191;-50
2024/01/29 06:24:16;;;;;;;8.07;4.68;;;5.00;99.90;;;;;;5090462;28;20629;-50
2024/01/29 06:26:42;;;;;;;7.28;4.35;;;4.90;99.90;;;;;;5090959;28;20180;-50
2024/01/29 06:29:08;;;;;;;5.80;4.13;;;4.90;99.90;;;;;;5091948;28;20193;-52
2024/01/29 06:31:37;;;;;;;5.65;4.43;;;5.00;99.90;;;;;;5094637;28;20180;-54
2024/01/29 06:34:04;;;;;;;6.03;3.85;;;5.00;99.90;;;;;;5094809;28;20154;-53
2024/01/29 06:36:30;;;;;;;8.20;5.00;;;5.00;99.90;;;;;;5095071;28;20632;-55
2024/01/29 06:38:56;;;;;;;8.55;4.20;;;5.00;99.90;;;;;;5095461;28;20177;-52
2024/01/29 06:41:23;;;;;;;8.50;5.18;;;4.90;99.90;;;;;;5095320;28;20176;-52
2024/01/29 06:43:53;;;;;;;8.10;5.82;;;4.90;99.90;;;;;;5077267;28;20165;-51
2024/01/29 06:46:19;;;;;;;7.47;5.07;;;4.90;99.90;;;;;;5094998;28;20218;-53
2024/01/29 06:48:44;;;;;;;6.65;4.97;;;4.90;99.90;;;;;;5095626;28;20201;-51
2024/01/29 06:51:10;;;;;;;12.27;6.78;;;4.90;99.90;;;;;;5095621;28;20244;-52
2024/01/29 06:53:36;;;;;;;6.32;4.22;;;4.90;99.90;;;;;;5095151;28;20175;-51
2024/01/29 06:56:04;;;;;;;7.72;5.43;;;4.90;99.90;;;;;;5093440;28;20165;-50
2024/01/29 06:58:30;;;;;;;8.27;4.75;;;4.90;99.90;;;;;;5095083;28;20218;-50
2024/01/29 07:00:56;;;;;;;9.45;4.13;;;4.90;99.90;;;;;;5094754;28;20170;-51
2024/01/29 07:03:22;;;;;;;7.75;4.65;;;4.90;99.90;;;;;;5094806;28;20169;-51
2024/01/29 07:05:48;;;;;;;7.97;5.45;;;4.90;99.90;;;;;;5094779;28;20508;-56
2024/01/29 07:08:14;;;;;;;6.95;4.35;;;4.90;99.90;;;;;;5095425;28;20516;-58
2024/01/29 07:10:39;;;;;;;10.55;6.30;;;4.90;99.90;;;;;;5094646;28;20685;-56
2024/01/29 07:13:05;;;;;;;8.23;5.72;;;4.90;99.90;;;;;;5094613;28;20500;-54
2024/01/29 07:15:31;;;;;;;8.23;5.20;;;4.90;99.90;;;;;;5094541;28;20534;-53
2024/01/29 07:17:56;;;;;;;8.00;4.80;;;4.80;99.90;;;;;;5094486;28;20154;-56
2024/01/29 07:20:22;;;;;;;11.40;5.95;;;4.80;99.90;;;;;;5094534;28;20183;-58
2024/01/29 07:22:48;;;;;;;9.65;6.00;;;4.80;99.90;;;;;;5094561;28;20169;-57
2024/01/29 07:25:13;;;;;;;10.32;5.68;;;4.80;99.90;;;;;;5094785;28;20219;-56
2024/01/29 07:27:39;;;;;;;8.00;5.22;;;4.80;99.90;;;;;;5094287;28;20173;-53
2024/01/29 07:30:05;;;;;;;9.05;5.53;;;4.80;99.90;;;;;;5094218;28;20696;-52
2024/01/29 07:32:33;;;;;;;8.82;4.97;;;4.80;99.90;;;;;;5094196;28;20165;-56
2024/01/29 07:35:03;;;;;;;7.93;4.70;;;4.80;99.90;;;;;;5094116;28;20173;-50
2024/01/29 07:37:29;;;;;;;8.50;6.03;;;4.90;99.90;;;;;;5094113;28;20197;-51
2024/01/29 07:39:58;;;;;;;10.63;6.07;;;4.80;99.90;;;;;;5093654;28;20608;-51
2024/01/29 07:42:24;;;;;;;8.88;5.35;;;4.80;99.90;;;;;;5093496;28;20165;-51
2024/01/29 07:44:51;;;;;;;8.15;5.63;;;4.80;99.90;;;;;;5094029;28;20162;-51
2024/01/29 07:47:17;;;;;;;13.50;6.25;;;4.90;99.90;;;;;;5094111;28;20192;-53
2024/01/29 07:49:42;;;;;;;8.68;4.95;;;4.90;99.90;;;;;;5094263;28;20259;-51
2024/01/29 07:52:09;;;;;;;10.70;4.88;;;4.90;99.90;;;;;;5093848;28;20177;-52
2024/01/29 07:54:35;;;;;;;10.98;5.68;;;4.90;99.90;;;;;;5093618;28;20551;-58
2024/01/29 07:57:00;;;;;;;13.02;4.95;;;4.90;99.90;;;;;;5093542;28;20209;-51
2024/01/29 07:59:26;;;;;;;12.13;6.38;;;5.00;99.90;;;;;;5093672;28;20262;-52
2024/01/29 08:01:51;;;;;;;16.40;8.13;;;5.00;99.90;;;;;;5093599;28;20161;-51
2024/01/29 08:04:17;;;;;;;13.48;6.35;;;5.00;99.90;;;;;;5093869;28;20168;-50
2024/01/29 08:06:43;;;;;;;14.15;6.40;;;5.00;99.90;;;;;;5094027;28;20169;-49
2024/01/29 08:09:08;;;;;;;11.25;5.72;;;5.10;99.90;;;;;;5093448;28;20555;-52
2024/01/29 08:11:34;;;;;;;8.48;5.57;;;5.10;99.90;;;;;;5093409;28;20176;-50
2024/01/29 08:14:00;;;;;;;14.93;6.80;;;5.10;99.90;;;;;;5093350;28;20161;-54
2024/01/29 08:16:25;;;;;;;9.35;5.55;;;5.20;99.90;;;;;;5093288;28;20166;-51
2024/01/29 08:18:51;;;;;;;11.60;6.25;;;5.30;99.90;;;;;;5093315;28;20174;-53
2024/01/29 08:21:17;;;;;;;13.32;6.70;;;5.40;99.90;;;;;;5092628;28;20408;-54
2024/01/29 08:23:43;;;;;;;13.45;6.22;;;5.50;99.90;;;;;;5093695;28;20204;-55
2024/01/29 08:26:09;;;;;;;12.85;6.30;;;5.60;99.90;;;;;;5093305;28;20201;-53
2024/01/29 08:28:34;;;;;;;12.77;6.38;;;5.60;99.90;;;;;;5093076;28;20185;-53
2024/01/29 08:31:00;;;;;;;9.77;5.85;;;5.80;99.90;;;;;;5093190;28;20161;-54
2024/01/29 08:33:27;;;;;;;10.35;4.68;;;5.80;99.90;;;;;;5093088;28;20177;-53
2024/01/29 08:35:53;;;;;;;7.28;5.03;;;5.80;99.90;;;;;;5093267;28;20169;-53
2024/01/29 08:38:18;;;;;;;9.80;5.38;;;5.90;99.90;;;;;;5091598;28;20193;-53
2024/01/29 08:40:44;;;;;;;8.73;5.85;;;6.00;99.90;;;;;;5093604;28;20162;-54
2024/01/29 08:43:10;;;;;;;10.80;6.10;;;6.10;99.90;;;;;;5093593;28;20195;-54
2024/01/29 08:45:36;;;;;;;8.98;5.80;;;6.10;99.90;;;;;;5092685;28;20173;-53
2024/01/29 08:48:03;;;;;;;8.05;5.43;;;6.20;99.90;;;;;;5092661;28;20168;-53
2024/01/29 08:50:30;;;;;;;10.70;5.35;;;6.30;99.90;;;;;;5092890;28;20185;-53
2024/01/29 08:52:55;;;;;;;13.30;5.80;;;6.40;99.90;;;;;;5092412;28;20166;-53
2024/01/29 08:55:22;;;;;;;10.27;6.70;;;6.50;99.90;;;;;;5092594;28;20169;-53
2024/01/29 08:57:48;;;;;;;8.38;5.35;;;6.50;99.90;;;;;;5092303;28;20708;-54
2024/01/29 09:00:14;;;;;;;10.88;5.93;;;6.50;99.90;;;;;;5092989;28;20168;-54
2024/01/29 09:02:41;;;;;;;10.57;6.07;;;6.50;99.90;;;;;;5092975;28;20170;-50
2024/01/29 09:05:07;;;;;;;12.32;5.47;;;6.60;99.90;;;;;;5092430;28;20625;-55
2024/01/29 09:07:33;;;;;;;10.50;6.22;;;6.60;99.90;;;;;;5092352;28;20169;-56
2024/01/29 09:09:58;;;;;;;8.70;5.85;;;6.80;99.90;;;;;;5092223;28;20257;-55
2024/01/29 09:12:24;;;;;;;9.82;5.68;;;6.90;99.90;;;;;;5091039;28;20631;-55
2024/01/29 09:14:49;;;;;;;14.85;6.97;;;7.00;99.90;;;;;;5092272;28;20253;-55
2024/01/29 09:17:15;;;;;;;12.07;5.78;;;7.10;99.90;;;;;;5092215;28;20161;-54
2024/01/29 09:19:40;;;;;;;11.07;6.10;;;7.20;99.90;;;;;;5092612;28;20170;-55
2024/01/29 09:22:06;;;;;;;7.45;5.82;;;7.30;99.90;;;;;;5092102;28;20679;-56
2024/01/29 09:24:32;;;;;;;12.10;5.82;;;7.50;99.90;;;;;;5091992;28;20531;-54
2024/01/29 09:26:57;;;;;;;9.73;5.88;;;7.70;99.90;;;;;;5092091;28;20237;-54
2024/01/29 09:29:23;;;;;;;11.07;5.40;;;7.70;99.90;;;;;;5091943;28;20334;-57
2024/01/29 09:31:49;;;;;;;6.38;5.03;;;7.70;99.90;;;;;;5091941;28;20242;-55
2024/01/29 09:34:14;;;;;;;10.25;6.25;;;7.70;99.90;;;;;;5091855;28;20524;-53
2024/01/29 09:36:40;;;;;;;12.20;6.22;;;7.90;99.90;;;;;;5092578;28;20324;-53
2024/01/29 09:39:07;;;;;;;11.73;5.88;;;7.90;99.90;;;;;;5091752;28;20176;-54
2024/01/29 09:41:35;;;;;;;7.57;5.53;;;8.00;99.90;;;;;;5091938;28;20244;-54
2024/01/29 09:44:06;;;;;;;11.32;5.60;;;7.90;99.90;;;;;;5091868;28;20207;-53
2024/01/29 09:46:36;;;;;;;13.77;6.38;;;7.80;99.90;;;;;;5091955;28;20528;-52
2024/01/29 09:49:02;;;;;;;11.82;5.78;;;7.80;99.90;;;;;;5091568;28;20247;-52
2024/01/29 09:51:28;;;;;;;8.48;5.35;;;7.90;99.90;;;;;;5091641;28;20169;-53
2024/01/29 09:53:54;;;;;;;13.95;6.53;;;8.10;99.90;;;;;;5091619;28;20176;-55
2024/01/29 09:56:20;;;;;;;10.02;5.60;;;8.20;99.90;;;;;;5091354;28;20248;-55
2024/01/29 09:58:45;;;;;;;9.32;5.80;;;8.20;99.90;;;;;;5091476;28;20680;-52
2024/01/29 10:01:14;;;;;;;11.00;6.15;;;8.30;99.90;;;;;;5091872;28;20527;-54
2024/01/29 10:03:41;;;;;;;10.52;5.65;;;8.40;99.90;;;;;;5090015;28;20166;-53
2024/01/29 10:06:07;;;;;;;10.75;7.75;;;8.40;99.90;;;;;;5091154;28;20201;-53
2024/01/29 10:08:34;;;;;;;15.60;8.85;;;8.60;99.90;;;;;;5091151;28;20244;-53
2024/01/29 10:11:00;;;;;;;11.48;6.30;;;8.60;99.90;;;;;;5091346;28;20169;-54
2024/01/29 10:13:25;;;;;;;8.23;5.38;;;8.60;99.90;;;;;;5091432;28;20169;-52
2024/01/29 10:15:52;;;;;;;9.85;5.65;;;8.60;99.90;;;;;;5091364;28;20291;-52
2024/01/29 10:18:17;;;;;;;9.02;5.88;;;8.60;99.90;;;;;;5091525;28;20169;-54
2024/01/29 10:20:43;;;;;;;9.50;5.68;;;8.60;99.90;;;;;;5091936;28;20177;-53
2024/01/29 10:23:09;;;;;;;14.43;7.18;;;8.60;99.90;;;;;;5091225;28;20157;-52
2024/01/29 10:25:38;;;;;;;11.38;6.50;;;8.60;99.90;;;;;;5091266;28;20172;-54
2024/01/29 10:28:11;;;;;;;11.80;6.25;;;8.70;99.90;;;;;;5091486;28;20170;-54
2024/01/29 10:30:37;;;;;;;15.70;6.75;;;8.70;99.90;;;;;;5091154;28;20196;-52
2024/01/29 10:33:03;;;;;;;8.73;5.82;;;8.90;99.90;;;;;;5090910;28;20248;-53
2024/01/29 10:35:29;;;;;;;12.32;6.70;;;9.00;99.90;;;;;;5090789;28;20169;-53
2024/01/29 10:38:00;;;;;;;10.00;6.10;;;8.90;99.90;;;;;;5091089;28;20710;-54
2024/01/29 10:40:28;;;;;;;9.13;6.13;;;9.10;99.90;;;;;;5091067;28;20169;-54
2024/01/29 10:42:55;;;;;;;12.32;6.15;;;9.10;99.90;;;;;;5089679;28;20576;-54
2024/01/29 10:45:21;;;;;;;9.40;6.28;;;9.10;99.90;;;;;;5091005;28;20168;-52
2024/01/29 10:47:49;;;;;;;70.72;41.10;;;9.20;99.90;;;;;;5090867;28;20656;-52
2024/01/29 10:50:18;;;;;;;46.00;28.92;;;9.30;99.90;;;;;;5089653;28;20587;-51
2024/01/29 10:52:48;;;;;;;109.90;80.90;;;9.40;99.90;;;;;;5090705;28;20946;-53
2024/01/29 10:55:15;;;;;;;42.50;27.73;;;9.50;99.90;;;;;;5091082;28;20219;-54
2024/01/29 10:57:46;;;;;;;30.33;20.13;;;9.70;99.90;;;;;;5091228;28;20574;-53
2024/01/29 11:00:14;;;;;;;27.65;17.50;;;9.80;99.90;;;;;;5091556;28;20511;-53
2024/01/29 11:02:40;;;;;;;23.13;16.10;;;9.90;99.90;;;;;;5091558;28;20172;-53
2024/01/29 11:05:07;;;;;;;48.83;29.58;;;10.00;99.90;;;;;;5090818;28;20178;-53
2024/01/29 11:07:33;;;;;;;26.15;14.68;;;10.00;99.90;;;;;;5090749;28;20162;-53
2024/01/29 11:10:19;;;;;;;23.30;12.93;;;10.10;99.90;;;;;;5090787;28;20212;-53
2024/01/29 11:12:47;;;;;;;19.40;15.15;;;10.10;99.90;;;;;;5090959;28;20640;-53
2024/01/29 11:15:13;;;;;;;17.58;11.50;;;10.20;99.90;;;;;;5092582;28;20161;-54
2024/01/29 11:17:42;;;;;;;19.98;13.27;;;10.30;99.90;;;;;;5094744;28;20198;-53
2024/01/29 11:20:12;;;;;;;33.88;20.90;;;10.30;99.90;;;;;;5094319;28;20244;-54
2024/01/29 11:22:39;;;;;;;23.45;14.48;;;10.40;99.90;;;;;;5094449;28;20161;-54
2024/01/29 11:25:12;;;;;;;21.63;15.30;;;10.50;99.90;;;;;;5094576;28;20304;-53
2024/01/29 11:27:38;;;;;;;29.40;12.02;;;10.60;99.90;;;;;;5094347;28;20168;-53
2024/01/29 11:30:19;;;;;;;14.50;10.00;;;10.70;99.90;;;;;;5094116;28;20228;-53
2024/01/29 11:32:46;;;;;;;23.10;18.27;;;10.70;99.90;;;;;;5094208;28;20574;-52
2024/01/29 11:35:22;;;;;;;29.95;18.75;;;10.70;99.90;;;;;;5094883;28;20207;-54
2024/01/29 11:37:49;;;;;;;25.25;18.83;;;10.80;99.90;;;;;;5094358;28;20165;-53
2024/01/29 11:40:33;;;;;;;18.23;13.45;;;10.90;99.90;;;;;;5093303;28;20252;-53
2024/01/29 11:43:08;;;;;;;23.83;12.70;;;11.00;99.90;;;;;;5093868;28;20528;-53
2024/01/29 11:45:38;;;;;;;50.72;35.97;;;11.00;99.90;;;;;;5093705;28;20179;-53
2024/01/29 11:48:21;;;;;;;43.70;29.77;;;11.00;99.90;;;;;;5093708;28;20597;-53
2024/01/29 11:50:57;;;;;;;14.63;8.93;;;11.10;99.90;;;;;;5093690;28;20177;-53
2024/01/29 11:53:25;;;;;;;27.20;14.23;;;11.00;99.90;;;;;;5093676;28;20157;-53
2024/01/29 11:55:55;;;;;;;22.05;14.00;;;11.10;99.90;;;;;;5093243;28;20260;-53
2024/01/29 11:58:22;;;;;;;21.45;15.23;;;11.00;99.90;;;;;;5093399;28;20209;-53
2024/01/29 12:00:52;;;;;;;12.93;9.75;;;11.10;99.90;;;;;;5093322;28;20176;-53
2024/01/29 12:03:22;;;;;;;15.88;7.72;;;11.30;99.90;;;;;;5092988;28;20517;-53
2024/01/29 12:05:49;;;;;;;17.67;8.23;;;11.30;99.90;;;;;;5093454;28;20162;-54
2024/01/29 12:08:26;;;;;;;16.73;7.55;;;11.40;99.90;;;;;;5093130;28;20161;-53
2024/01/29 12:11:03;;;;;;;22.88;9.23;;;11.50;99.90;;;;;;5092671;28;20606;-53
2024/01/29 12:13:29;;;;;;;17.75;8.18;;;11.50;99.90;;;;;;5093286;28;20246;-53
2024/01/29 12:15:59;;;;;;;17.23;8.20;;;11.50;99.90;;;;;;5093218;28;20707;-53
2024/01/29 12:18:28;;;;;;;13.05;8.35;;;11.60;99.90;;;;;;5093215;28;20167;-53
2024/01/29 12:20:54;;;;;;;16.75;7.68;;;11.60;99.90;;;;;;5093143;28;20319;-53
2024/01/29 12:23:22;;;;;;;13.30;6.60;;;11.60;99.90;;;;;;5092661;28;20248;-53
2024/01/29 12:25:55;;;;;;;11.90;6.63;;;11.70;99.90;;;;;;5092634;28;20211;-53
2024/01/29 12:28:23;;;;;;;12.20;5.68;;;11.70;99.90;;;;;;5092100;28;20161;-53
2024/01/29 12:31:00;;;;;;;12.20;5.93;;;11.70;99.90;;;;;;5090799;28;20264;-53
2024/01/29 12:33:29;;;;;;;16.25;6.10;;;11.70;99.90;;;;;;5091382;28;20243;-53
2024/01/29 12:35:56;;;;;;;20.25;6.00;;;11.70;99.90;;;;;;5091869;28;20537;-53
2024/01/29 12:38:22;;;;;;;12.18;6.18;;;11.70;99.90;;;;;;5091381;28;20162;-53
2024/01/29 12:40:57;;;;;;;12.27;8.10;;;11.70;99.90;;;;;;5091830;28;20173;-53
2024/01/29 12:43:30;;;;;;;22.98;10.80;;;11.70;99.90;;;;;;5092543;28;20209;-55
2024/01/29 12:46:04;;;;;;;24.15;11.27;;;11.70;99.90;;;;;;5091779;28;20625;-54